sensor_id;sensor_type;location;lat;lon;timestamp;temperature;humidity
71173;DHT22;58875;51.996;4.504;2024-01-06T00:01:40;7.38;81.19
71173;DHT22;58875;51.996;4.504;2024-01-06T00:04:06;7.44;81.36
71173;DHT22;58875;51.996;4.504;2024-01-06T00:06:31;7.42;80.87
71173;DHT22;58875;51.996;4.504;2024-01-06T00:08:57;7.32;80.85
71173;DHT22;58875;51.996;4.504;2024-01-06T00:11:23;7.27;81.49
71173;DHT22;58875;51.996;4.504;2024-01-06T00:13:49;7.20;81.42
71173;DHT22;58875;51.996;4.504;2024-01-06T00:16:19;7.20;81.54
71173;DHT22;58875;51.996;4.504;2024-01-06T00:18:45;7.18;81.79
71173;DHT22;58875;51.996;4.504;2024-01-06T00:21:11;7.15;81.77
71173;DHT22;58875;51.996;4.504;2024-01-06T00:23:36;7.14;81.79
71173;DHT22;58875;51.996;4.504;2024-01-06T00:26:02;7.13;81.88
71173;DHT22;58875;51.996;4.504;2024-01-06T00:28:28;7.13;81.80
71173;DHT22;58875;51.996;4.504;2024-01-06T00:30:53;7.15;81.85
71173;DHT22;58875;51.996;4.504;2024-01-06T00:33:18;7.21;81.90
71173;DHT22;58875;51.996;4.504;2024-01-06T00:35:44;7.21;81.67
71173;DHT22;58875;51.996;4.504;2024-01-06T00:38:10;7.14;81.43
71173;DHT22;58875;51.996;4.504;2024-01-06T00:40:35;7.05;81.56
71173;DHT22;58875;51.996;4.504;2024-01-06T00:43:01;7.04;81.81
71173;DHT22;58875;51.996;4.504;2024-01-06T00:45:26;7.01;81.70
71173;DHT22;58875;51.996;4.504;2024-01-06T00:47:52;6.99;81.77
71173;DHT22;58875;51.996;4.504;2024-01-06T00:50:18;7.01;81.56
71173;DHT22;58875;51.996;4.504;2024-01-06T00:52:44;7.00;81.68
71173;DHT22;58875;51.996;4.504;2024-01-06T00:55:10;6.96;81.39
71173;DHT22;58875;51.996;4.504;2024-01-06T00:57:36;6.96;81.73
71173;DHT22;58875;51.996;4.504;2024-01-06T01:00:05;6.96;81.85
71173;DHT22;58875;51.996;4.504;2024-01-06T01:02:31;7.00;81.77
71173;DHT22;58875;51.996;4.504;2024-01-06T01:05:00;7.01;81.33
71173;DHT22;58875;51.996;4.504;2024-01-06T01:07:27;6.97;81.38
71173;DHT22;58875;51.996;4.504;2024-01-06T01:09:52;6.97;81.41
71173;DHT22;58875;51.996;4.504;2024-01-06T01:12:18;7.03;81.71
71173;DHT22;58875;51.996;4.504;2024-01-06T01:14:43;7.10;81.48
71173;DHT22;58875;51.996;4.504;2024-01-06T01:17:09;7.07;81.27
71173;DHT22;58875;51.996;4.504;2024-01-06T01:19:34;7.05;81.27
71173;DHT22;58875;51.996;4.504;2024-01-06T01:22:00;7.03;80.98
71173;DHT22;58875;51.996;4.504;2024-01-06T01:24:25;6.97;81.07
71173;DHT22;58875;51.996;4.504;2024-01-06T01:26:51;7.05;81.15
71173;DHT22;58875;51.996;4.504;2024-01-06T01:29:16;7.04;80.80
71173;DHT22;58875;51.996;4.504;2024-01-06T01:31:42;7.04;80.80
71173;DHT22;58875;51.996;4.504;2024-01-06T01:34:08;6.99;80.68
71173;DHT22;58875;51.996;4.504;2024-01-06T01:36:33;6.89;80.63
71173;DHT22;58875;51.996;4.504;2024-01-06T01:38:59;6.87;80.76
71173;DHT22;58875;51.996;4.504;2024-01-06T01:41:25;6.89;81.01
71173;DHT22;58875;51.996;4.504;2024-01-06T01:43:50;6.94;80.87
71173;DHT22;58875;51.996;4.504;2024-01-06T01:46:25;7.00;81.07
71173;DHT22;58875;51.996;4.504;2024-01-06T01:48:55;7.01;80.62
71173;DHT22;58875;51.996;4.504;2024-01-06T01:51:21;6.89;80.60
71173;DHT22;58875;51.996;4.504;2024-01-06T01:53:47;6.91;80.69
71173;DHT22;58875;51.996;4.504;2024-01-06T01:56:13;6.86;80.74
71173;DHT22;58875;51.996;4.504;2024-01-06T01:58:39;6.80;80.27
71173;DHT22;58875;51.996;4.504;2024-01-06T02:01:07;6.75;80.38
71173;DHT22;58875;51.996;4.504;2024-01-06T02:03:33;6.76;80.28
71173;DHT22;58875;51.996;4.504;2024-01-06T02:05:58;6.75;80.42
71173;DHT22;58875;51.996;4.504;2024-01-06T02:08:24;6.75;80.09
71173;DHT22;58875;51.996;4.504;2024-01-06T02:10:50;6.60;79.93
71173;DHT22;58875;51.996;4.504;2024-01-06T02:13:15;6.52;79.35
71173;DHT22;58875;51.996;4.504;2024-01-06T02:15:41;6.41;79.64
71173;DHT22;58875;51.996;4.504;2024-01-06T02:18:06;6.33;79.57
71173;DHT22;58875;51.996;4.504;2024-01-06T02:20:32;6.31;79.73
71173;DHT22;58875;51.996;4.504;2024-01-06T02:22:58;6.25;79.98
71173;DHT22;58875;51.996;4.504;2024-01-06T02:25:26;6.18;79.95
71173;DHT22;58875;51.996;4.504;2024-01-06T02:27:51;6.14;80.03
71173;DHT22;58875;51.996;4.504;2024-01-06T02:30:17;6.17;80.19
71173;DHT22;58875;51.996;4.504;2024-01-06T02:32:42;6.21;80.12
71173;DHT22;58875;51.996;4.504;2024-01-06T02:35:08;6.19;80.08
71173;DHT22;58875;51.996;4.504;2024-01-06T02:37:33;6.15;80.02
71173;DHT22;58875;51.996;4.504;2024-01-06T02:39:59;6.21;80.18
71173;DHT22;58875;51.996;4.504;2024-01-06T02:42:24;6.18;80.20
71173;DHT22;58875;51.996;4.504;2024-01-06T02:44:50;6.21;80.23
71173;DHT22;58875;51.996;4.504;2024-01-06T02:47:16;6.25;80.36
71173;DHT22;58875;51.996;4.504;2024-01-06T02:49:42;6.39;80.05
71173;DHT22;58875;51.996;4.504;2024-01-06T02:52:07;6.35;79.89
71173;DHT22;58875;51.996;4.504;2024-01-06T02:54:32;6.32;79.80
71173;DHT22;58875;51.996;4.504;2024-01-06T02:56:58;6.33;79.50
71173;DHT22;58875;51.996;4.504;2024-01-06T02:59:23;6.38;79.43
71173;DHT22;58875;51.996;4.504;2024-01-06T03:01:49;6.31;79.63
71173;DHT22;58875;51.996;4.504;2024-01-06T03:04:14;6.39;80.14
71173;DHT22;58875;51.996;4.504;2024-01-06T03:06:40;6.48;79.74
71173;DHT22;58875;51.996;4.504;2024-01-06T03:09:05;6.49;79.57
71173;DHT22;58875;51.996;4.504;2024-01-06T03:11:31;6.46;79.37
71173;DHT22;58875;51.996;4.504;2024-01-06T03:13:56;6.48;79.56
71173;DHT22;58875;51.996;4.504;2024-01-06T03:16:22;6.46;79.71
71173;DHT22;58875;51.996;4.504;2024-01-06T03:18:47;6.45;79.67
71173;DHT22;58875;51.996;4.504;2024-01-06T03:21:18;6.43;79.84
71173;DHT22;58875;51.996;4.504;2024-01-06T03:23:43;6.39;79.82
71173;DHT22;58875;51.996;4.504;2024-01-06T03:26:09;6.32;80.15
71173;DHT22;58875;51.996;4.504;2024-01-06T03:28:34;6.36;80.04
71173;DHT22;58875;51.996;4.504;2024-01-06T03:31:00;6.33;80.04
71173;DHT22;58875;51.996;4.504;2024-01-06T03:33:25;6.32;79.74
71173;DHT22;58875;51.996;4.504;2024-01-06T03:35:51;6.26;79.67
71173;DHT22;58875;51.996;4.504;2024-01-06T03:38:16;6.26;80.01
71173;DHT22;58875;51.996;4.504;2024-01-06T03:40:42;6.32;79.91
71173;DHT22;58875;51.996;4.504;2024-01-06T03:43:07;6.26;79.82
71173;DHT22;58875;51.996;4.504;2024-01-06T03:45:33;6.29;79.80
71173;DHT22;58875;51.996;4.504;2024-01-06T03:47:58;6.31;79.66
71173;DHT22;58875;51.996;4.504;2024-01-06T03:50:24;6.28;79.62
71173;DHT22;58875;51.996;4.504;2024-01-06T03:52:49;6.22;79.49
71173;DHT22;58875;51.996;4.504;2024-01-06T03:55:15;6.17;79.63
71173;DHT22;58875;51.996;4.504;2024-01-06T03:57:41;6.22;79.34
71173;DHT22;58875;51.996;4.504;2024-01-06T04:00:08;6.24;79.47
71173;DHT22;58875;51.996;4.504;2024-01-06T04:02:34;6.25;79.58
71173;DHT22;58875;51.996;4.504;2024-01-06T04:04:59;6.21;79.66
71173;DHT22;58875;51.996;4.504;2024-01-06T04:07:25;6.21;79.57
71173;DHT22;58875;51.996;4.504;2024-01-06T04:09:50;6.21;79.28
71173;DHT22;58875;51.996;4.504;2024-01-06T04:12:16;6.22;79.44
71173;DHT22;58875;51.996;4.504;2024-01-06T04:14:41;6.26;79.47
71173;DHT22;58875;51.996;4.504;2024-01-06T04:17:07;6.32;79.72
71173;DHT22;58875;51.996;4.504;2024-01-06T04:19:32;6.32;79.10
71173;DHT22;58875;51.996;4.504;2024-01-06T04:21:59;6.31;78.85
71173;DHT22;58875;51.996;4.504;2024-01-06T04:24:25;6.26;78.93
71173;DHT22;58875;51.996;4.504;2024-01-06T04:26:50;6.28;78.82
71173;DHT22;58875;51.996;4.504;2024-01-06T04:29:16;6.24;78.93
71173;DHT22;58875;51.996;4.504;2024-01-06T04:31:41;6.19;79.17
71173;DHT22;58875;51.996;4.504;2024-01-06T04:34:07;6.21;79.09
71173;DHT22;58875;51.996;4.504;2024-01-06T04:36:32;6.18;79.29
71173;DHT22;58875;51.996;4.504;2024-01-06T04:38:58;6.19;79.49
71173;DHT22;58875;51.996;4.504;2024-01-06T04:41:23;6.22;79.44
71173;DHT22;58875;51.996;4.504;2024-01-06T04:43:49;6.29;79.39
71173;DHT22;58875;51.996;4.504;2024-01-06T04:46:14;6.24;79.46
71173;DHT22;58875;51.996;4.504;2024-01-06T04:48:41;6.21;79.90
71173;DHT22;58875;51.996;4.504;2024-01-06T04:51:06;6.19;79.77
71173;DHT22;58875;51.996;4.504;2024-01-06T04:53:36;6.15;79.73
71173;DHT22;58875;51.996;4.504;2024-01-06T04:56:01;6.11;79.62
71173;DHT22;58875;51.996;4.504;2024-01-06T04:58:27;6.07;79.94
71173;DHT22;58875;51.996;4.504;2024-01-06T05:00:53;6.02;80.00
71173;DHT22;58875;51.996;4.504;2024-01-06T05:03:18;6.00;80.31
71173;DHT22;58875;51.996;4.504;2024-01-06T05:05:44;6.05;80.53
71173;DHT22;58875;51.996;4.504;2024-01-06T05:08:09;6.12;80.22
71173;DHT22;58875;51.996;4.504;2024-01-06T05:10:35;6.01;80.08
71173;DHT22;58875;51.996;4.504;2024-01-06T05:13:00;5.95;80.39
71173;DHT22;58875;51.996;4.504;2024-01-06T05:15:26;5.94;80.58
71173;DHT22;58875;51.996;4.504;2024-01-06T05:17:52;6.00;80.60
71173;DHT22;58875;51.996;4.504;2024-01-06T05:20:17;6.04;80.34
71173;DHT22;58875;51.996;4.504;2024-01-06T05:22:43;6.01;80.25
71173;DHT22;58875;51.996;4.504;2024-01-06T05:25:08;6.04;80.27
71173;DHT22;58875;51.996;4.504;2024-01-06T05:27:34;6.04;80.23
71173;DHT22;58875;51.996;4.504;2024-01-06T05:30:00;6.00;80.34
71173;DHT22;58875;51.996;4.504;2024-01-06T05:32:26;5.93;80.52
71173;DHT22;58875;51.996;4.504;2024-01-06T05:34:52;5.97;80.41
71173;DHT22;58875;51.996;4.504;2024-01-06T05:37:17;5.91;80.49
71173;DHT22;58875;51.996;4.504;2024-01-06T05:39:43;5.97;80.37
71173;DHT22;58875;51.996;4.504;2024-01-06T05:42:10;5.98;80.21
71173;DHT22;58875;51.996;4.504;2024-01-06T05:44:37;5.91;80.15
71173;DHT22;58875;51.996;4.504;2024-01-06T05:47:04;5.88;80.20
71173;DHT22;58875;51.996;4.504;2024-01-06T05:49:29;5.93;80.12
71173;DHT22;58875;51.996;4.504;2024-01-06T05:51:55;5.98;80.13
71173;DHT22;58875;51.996;4.504;2024-01-06T05:54:20;5.98;79.99
71173;DHT22;58875;51.996;4.504;2024-01-06T05:56:45;5.97;79.83
71173;DHT22;58875;51.996;4.504;2024-01-06T05:59:11;5.88;79.96
71173;DHT22;58875;51.996;4.504;2024-01-06T06:01:36;5.91;79.98
71173;DHT22;58875;51.996;4.504;2024-01-06T06:04:02;5.95;79.92
71173;DHT22;58875;51.996;4.504;2024-01-06T06:06:28;5.98;79.35
71173;DHT22;58875;51.996;4.504;2024-01-06T06:08:53;5.94;79.53
71173;DHT22;58875;51.996;4.504;2024-01-06T06:11:19;5.91;79.09
71173;DHT22;58875;51.996;4.504;2024-01-06T06:13:44;5.87;78.76
71173;DHT22;58875;51.996;4.504;2024-01-06T06:16:10;5.87;78.79
71173;DHT22;58875;51.996;4.504;2024-01-06T06:18:38;5.88;78.87
71173;DHT22;58875;51.996;4.504;2024-01-06T06:21:03;5.93;78.62
71173;DHT22;58875;51.996;4.504;2024-01-06T06:23:32;6.00;78.71
71173;DHT22;58875;51.996;4.504;2024-01-06T06:25:58;6.02;78.51
71173;DHT22;58875;51.996;4.504;2024-01-06T06:28:25;5.90;78.43
71173;DHT22;58875;51.996;4.504;2024-01-06T06:30:51;5.88;78.41
71173;DHT22;58875;51.996;4.504;2024-01-06T06:33:16;5.87;78.77
71173;DHT22;58875;51.996;4.504;2024-01-06T06:35:42;5.87;78.64
71173;DHT22;58875;51.996;4.504;2024-01-06T06:38:08;5.93;78.84
71173;DHT22;58875;51.996;4.504;2024-01-06T06:40:33;5.98;78.62
71173;DHT22;58875;51.996;4.504;2024-01-06T06:42:59;5.98;78.55
71173;DHT22;58875;51.996;4.504;2024-01-06T06:45:24;5.93;78.26
71173;DHT22;58875;51.996;4.504;2024-01-06T06:47:50;5.81;78.56
71173;DHT22;58875;51.996;4.504;2024-01-06T06:50:18;5.84;78.75
71173;DHT22;58875;51.996;4.504;2024-01-06T06:52:46;5.81;79.25
71173;DHT22;58875;51.996;4.504;2024-01-06T06:55:12;5.81;79.24
71173;DHT22;58875;51.996;4.504;2024-01-06T06:57:38;5.78;79.40
71173;DHT22;58875;51.996;4.504;2024-01-06T07:00:04;5.77;79.88
71173;DHT22;58875;51.996;4.504;2024-01-06T07:02:33;5.69;79.66
71173;DHT22;58875;51.996;4.504;2024-01-06T07:04:58;5.71;80.07
71173;DHT22;58875;51.996;4.504;2024-01-06T07:07:24;5.70;80.14
71173;DHT22;58875;51.996;4.504;2024-01-06T07:09:49;5.73;80.09
71173;DHT22;58875;51.996;4.504;2024-01-06T07:12:15;5.69;79.84
71173;DHT22;58875;51.996;4.504;2024-01-06T07:14:40;5.69;80.10
71173;DHT22;58875;51.996;4.504;2024-01-06T07:17:06;5.69;79.78
71173;DHT22;58875;51.996;4.504;2024-01-06T07:19:32;5.67;80.07
71173;DHT22;58875;51.996;4.504;2024-01-06T07:21:57;5.71;80.17
71173;DHT22;58875;51.996;4.504;2024-01-06T07:24:23;5.66;80.20
71173;DHT22;58875;51.996;4.504;2024-01-06T07:26:48;5.74;80.27
71173;DHT22;58875;51.996;4.504;2024-01-06T07:29:14;5.74;80.40
71173;DHT22;58875;51.996;4.504;2024-01-06T07:31:40;5.77;80.14
71173;DHT22;58875;51.996;4.504;2024-01-06T07:34:05;5.69;80.34
71173;DHT22;58875;51.996;4.504;2024-01-06T07:36:31;5.70;80.41
71173;DHT22;58875;51.996;4.504;2024-01-06T07:38:57;5.70;80.47
71173;DHT22;58875;51.996;4.504;2024-01-06T07:41:23;5.69;80.59
71173;DHT22;58875;51.996;4.504;2024-01-06T07:43:48;5.63;80.54
71173;DHT22;58875;51.996;4.504;2024-01-06T07:46:14;5.67;80.47
71173;DHT22;58875;51.996;4.504;2024-01-06T07:48:40;5.59;80.22
71173;DHT22;58875;51.996;4.504;2024-01-06T07:51:05;5.60;80.17
71173;DHT22;58875;51.996;4.504;2024-01-06T07:53:31;5.64;80.21
71173;DHT22;58875;51.996;4.504;2024-01-06T07:55:56;5.63;79.80
71173;DHT22;58875;51.996;4.504;2024-01-06T07:58:22;5.59;79.90
71173;DHT22;58875;51.996;4.504;2024-01-06T08:00:48;5.59;79.69
71173;DHT22;58875;51.996;4.504;2024-01-06T08:03:13;5.59;79.93
71173;DHT22;58875;51.996;4.504;2024-01-06T08:05:39;5.61;79.43
71173;DHT22;58875;51.996;4.504;2024-01-06T08:08:05;5.59;79.01
71173;DHT22;58875;51.996;4.504;2024-01-06T08:10:32;5.56;78.92
71173;DHT22;58875;51.996;4.504;2024-01-06T08:12:57;5.51;78.74
71173;DHT22;58875;51.996;4.504;2024-01-06T08:15:23;5.56;78.76
71173;DHT22;58875;51.996;4.504;2024-01-06T08:17:48;5.64;78.87
71173;DHT22;58875;51.996;4.504;2024-01-06T08:20:14;5.71;78.82
71173;DHT22;58875;51.996;4.504;2024-01-06T08:22:39;5.74;78.50
71173;DHT22;58875;51.996;4.504;2024-01-06T08:25:05;5.74;78.76
71173;DHT22;58875;51.996;4.504;2024-01-06T08:27:34;5.80;78.73
71173;DHT22;58875;51.996;4.504;2024-01-06T08:30:00;5.78;78.47
71173;DHT22;58875;51.996;4.504;2024-01-06T08:32:26;5.75;78.57
71173;DHT22;58875;51.996;4.504;2024-01-06T08:34:51;5.80;78.64
71173;DHT22;58875;51.996;4.504;2024-01-06T08:37:17;5.81;78.34
71173;DHT22;58875;51.996;4.504;2024-01-06T08:39:42;5.80;78.73
71173;DHT22;58875;51.996;4.504;2024-01-06T08:42:08;5.84;78.73
71173;DHT22;58875;51.996;4.504;2024-01-06T08:44:33;5.87;78.88
71173;DHT22;58875;51.996;4.504;2024-01-06T08:46:59;5.88;78.82
71173;DHT22;58875;51.996;4.504;2024-01-06T08:49:25;5.86;78.75
71173;DHT22;58875;51.996;4.504;2024-01-06T08:51:50;5.81;78.93
71173;DHT22;58875;51.996;4.504;2024-01-06T08:54:16;5.80;79.20
71173;DHT22;58875;51.996;4.504;2024-01-06T08:56:41;5.81;79.41
71173;DHT22;58875;51.996;4.504;2024-01-06T08:59:07;5.74;79.28
71173;DHT22;58875;51.996;4.504;2024-01-06T09:01:32;5.73;79.12
71173;DHT22;58875;51.996;4.504;2024-01-06T09:04:01;5.69;79.13
71173;DHT22;58875;51.996;4.504;2024-01-06T09:06:27;5.71;78.98
71173;DHT22;58875;51.996;4.504;2024-01-06T09:08:52;5.77;79.26
71173;DHT22;58875;51.996;4.504;2024-01-06T09:11:18;5.80;79.01
71173;DHT22;58875;51.996;4.504;2024-01-06T09:13:43;5.75;78.68
71173;DHT22;58875;51.996;4.504;2024-01-06T09:16:09;5.73;78.73
71173;DHT22;58875;51.996;4.504;2024-01-06T09:18:36;5.67;78.60
71173;DHT22;58875;51.996;4.504;2024-01-06T09:21:01;5.66;78.93
71173;DHT22;58875;51.996;4.504;2024-01-06T09:23:28;5.63;78.50
71173;DHT22;58875;51.996;4.504;2024-01-06T09:25:54;5.59;78.68
71173;DHT22;58875;51.996;4.504;2024-01-06T09:28:20;5.59;78.88
71173;DHT22;58875;51.996;4.504;2024-01-06T09:30:49;5.63;79.06
71173;DHT22;58875;51.996;4.504;2024-01-06T09:33:16;5.67;78.89
71173;DHT22;58875;51.996;4.504;2024-01-06T09:35:46;5.69;78.86
71173;DHT22;58875;51.996;4.504;2024-01-06T09:38:11;5.67;78.69
71173;DHT22;58875;51.996;4.504;2024-01-06T09:40:43;5.77;78.84
71173;DHT22;58875;51.996;4.504;2024-01-06T09:43:12;5.80;78.35
71173;DHT22;58875;51.996;4.504;2024-01-06T09:45:38;5.83;78.47
71173;DHT22;58875;51.996;4.504;2024-01-06T09:48:14;5.98;78.00
71173;DHT22;58875;51.996;4.504;2024-01-06T09:50:43;6.02;78.10
71173;DHT22;58875;51.996;4.504;2024-01-06T09:53:13;6.12;77.89
71173;DHT22;58875;51.996;4.504;2024-01-06T09:55:39;6.17;77.69
71173;DHT22;58875;51.996;4.504;2024-01-06T09:58:05;6.12;77.59
71173;DHT22;58875;51.996;4.504;2024-01-06T10:00:32;6.08;77.41
71173;DHT22;58875;51.996;4.504;2024-01-06T10:02:57;6.12;77.40
71173;DHT22;58875;51.996;4.504;2024-01-06T10:05:23;6.17;77.31
71173;DHT22;58875;51.996;4.504;2024-01-06T10:07:49;6.22;77.59
71173;DHT22;58875;51.996;4.504;2024-01-06T10:10:15;6.18;77.20
71173;DHT22;58875;51.996;4.504;2024-01-06T10:12:42;6.24;77.68
71173;DHT22;58875;51.996;4.504;2024-01-06T10:15:09;6.24;77.53
71173;DHT22;58875;51.996;4.504;2024-01-06T10:17:40;6.17;77.09
71173;DHT22;58875;51.996;4.504;2024-01-06T10:20:09;6.05;77.26
71173;DHT22;58875;51.996;4.504;2024-01-06T10:22:35;6.02;77.42
71173;DHT22;58875;51.996;4.504;2024-01-06T10:25:02;6.08;77.58
71173;DHT22;58875;51.996;4.504;2024-01-06T10:27:29;6.14;77.31
71173;DHT22;58875;51.996;4.504;2024-01-06T10:29:54;6.11;77.24
71173;DHT22;58875;51.996;4.504;2024-01-06T10:32:20;6.00;77.02
71173;DHT22;58875;51.996;4.504;2024-01-06T10:34:46;6.00;77.07
71173;DHT22;58875;51.996;4.504;2024-01-06T10:37:11;6.01;77.23
71173;DHT22;58875;51.996;4.504;2024-01-06T10:39:37;6.02;77.14
71173;DHT22;58875;51.996;4.504;2024-01-06T10:42:04;6.01;77.54
71173;DHT22;58875;51.996;4.504;2024-01-06T10:44:32;5.94;77.47
71173;DHT22;58875;51.996;4.504;2024-01-06T10:46:59;5.75;77.24
71173;DHT22;58875;51.996;4.504;2024-01-06T10:49:26;5.70;77.99
71173;DHT22;58875;51.996;4.504;2024-01-06T10:51:54;5.80;78.08
71173;DHT22;58875;51.996;4.504;2024-01-06T10:54:20;5.80;77.90
71173;DHT22;58875;51.996;4.504;2024-01-06T10:56:48;5.81;77.97
71173;DHT22;58875;51.996;4.504;2024-01-06T10:59:16;5.87;77.66
71173;DHT22;58875;51.996;4.504;2024-01-06T11:01:44;5.81;77.51
71173;DHT22;58875;51.996;4.504;2024-01-06T11:04:09;5.74;77.41
71173;DHT22;58875;51.996;4.504;2024-01-06T11:06:36;5.83;77.58
71173;DHT22;58875;51.996;4.504;2024-01-06T11:09:13;5.84;77.50
71173;DHT22;58875;51.996;4.504;2024-01-06T11:11:39;5.86;77.25
71173;DHT22;58875;51.996;4.504;2024-01-06T11:14:38;5.80;77.55
71173;DHT22;58875;51.996;4.504;2024-01-06T11:17:04;5.81;77.61
71173;DHT22;58875;51.996;4.504;2024-01-06T11:22:27;5.91;77.56
71173;DHT22;58875;51.996;4.504;2024-01-06T11:24:55;5.93;77.38
71173;DHT22;58875;51.996;4.504;2024-01-06T11:27:27;5.94;77.20
71173;DHT22;58875;51.996;4.504;2024-01-06T11:29:57;5.97;76.95
71173;DHT22;58875;51.996;4.504;2024-01-06T11:34:56;5.83;76.79
71173;DHT22;58875;51.996;4.504;2024-01-06T11:40:07;5.87;77.27
71173;DHT22;58875;51.996;4.504;2024-01-06T11:42:33;5.84;76.63
71173;DHT22;58875;51.996;4.504;2024-01-06T11:45:05;5.83;76.47
71173;DHT22;58875;51.996;4.504;2024-01-06T11:47:35;5.87;76.64
71173;DHT22;58875;51.996;4.504;2024-01-06T11:50:02;5.88;76.86
71173;DHT22;58875;51.996;4.504;2024-01-06T11:52:31;5.95;76.96
71173;DHT22;58875;51.996;4.504;2024-01-06T11:54:58;5.98;76.75
71173;DHT22;58875;51.996;4.504;2024-01-06T11:57:25;6.00;76.85
71173;DHT22;58875;51.996;4.504;2024-01-06T11:59:51;6.00;76.40
71173;DHT22;58875;51.996;4.504;2024-01-06T12:02:18;5.94;75.79
71173;DHT22;58875;51.996;4.504;2024-01-06T12:04:52;5.93;76.18
71173;DHT22;58875;51.996;4.504;2024-01-06T12:07:19;5.91;75.95
71173;DHT22;58875;51.996;4.504;2024-01-06T12:09:46;5.90;76.35
71173;DHT22;58875;51.996;4.504;2024-01-06T12:12:16;6.05;75.86
71173;DHT22;58875;51.996;4.504;2024-01-06T12:14:42;6.02;75.67
71173;DHT22;58875;51.996;4.504;2024-01-06T12:17:08;6.07;75.20
71173;DHT22;58875;51.996;4.504;2024-01-06T12:19:33;6.05;74.92
71173;DHT22;58875;51.996;4.504;2024-01-06T12:21:59;6.10;74.83
71173;DHT22;58875;51.996;4.504;2024-01-06T12:24:29;6.14;74.56
71173;DHT22;58875;51.996;4.504;2024-01-06T12:26:56;6.18;74.66
71173;DHT22;58875;51.996;4.504;2024-01-06T12:29:26;6.17;74.49
71173;DHT22;58875;51.996;4.504;2024-01-06T12:31:53;6.17;74.54
71173;DHT22;58875;51.996;4.504;2024-01-06T12:34:20;6.17;74.76
71173;DHT22;58875;51.996;4.504;2024-01-06T12:36:46;6.17;74.80
71173;DHT22;58875;51.996;4.504;2024-01-06T12:39:13;6.05;75.05
71173;DHT22;58875;51.996;4.504;2024-01-06T12:41:40;5.97;75.63
71173;DHT22;58875;51.996;4.504;2024-01-06T12:44:06;6.01;75.87
71173;DHT22;58875;51.996;4.504;2024-01-06T12:46:33;6.10;75.75
71173;DHT22;58875;51.996;4.504;2024-01-06T12:48:58;6.17;75.65
71173;DHT22;58875;51.996;4.504;2024-01-06T12:51:24;6.26;75.52
71173;DHT22;58875;51.996;4.504;2024-01-06T12:53:49;6.32;75.43
71173;DHT22;58875;51.996;4.504;2024-01-06T12:56:15;6.33;75.27
71173;DHT22;58875;51.996;4.504;2024-01-06T12:58:41;6.25;75.61
71173;DHT22;58875;51.996;4.504;2024-01-06T13:01:07;6.18;75.77
71173;DHT22;58875;51.996;4.504;2024-01-06T13:03:33;6.15;76.09
71173;DHT22;58875;51.996;4.504;2024-01-06T13:06:00;6.12;76.37
71173;DHT22;58875;51.996;4.504;2024-01-06T13:08:26;6.18;76.33
71173;DHT22;58875;51.996;4.504;2024-01-06T13:10:53;6.15;75.70
71173;DHT22;58875;51.996;4.504;2024-01-06T13:13:19;6.07;75.52
71173;DHT22;58875;51.996;4.504;2024-01-06T13:15:45;5.94;75.60
71173;DHT22;58875;51.996;4.504;2024-01-06T13:18:12;5.95;75.59
71173;DHT22;58875;51.996;4.504;2024-01-06T13:20:38;5.90;75.69
71173;DHT22;58875;51.996;4.504;2024-01-06T13:23:08;5.91;75.78
71173;DHT22;58875;51.996;4.504;2024-01-06T13:25:35;5.90;75.70
71173;DHT22;58875;51.996;4.504;2024-01-06T13:28:01;5.95;75.94
71173;DHT22;58875;51.996;4.504;2024-01-06T13:30:26;5.94;75.39
71173;DHT22;58875;51.996;4.504;2024-01-06T13:32:53;5.93;75.45
71173;DHT22;58875;51.996;4.504;2024-01-06T13:35:22;5.91;75.05
71173;DHT22;58875;51.996;4.504;2024-01-06T13:37:53;5.94;74.78
71173;DHT22;58875;51.996;4.504;2024-01-06T13:40:21;5.95;74.69
71173;DHT22;58875;51.996;4.504;2024-01-06T13:42:48;5.91;74.07
71173;DHT22;58875;51.996;4.504;2024-01-06T13:45:14;5.93;74.60
71173;DHT22;58875;51.996;4.504;2024-01-06T13:47:41;5.87;74.72
71173;DHT22;58875;51.996;4.504;2024-01-06T13:50:11;6.02;74.79
71173;DHT22;58875;51.996;4.504;2024-01-06T13:52:37;6.02;74.60
71173;DHT22;58875;51.996;4.504;2024-01-06T13:55:03;6.05;74.75
71173;DHT22;58875;51.996;4.504;2024-01-06T13:57:29;6.07;74.60
71173;DHT22;58875;51.996;4.504;2024-01-06T13:59:54;6.11;73.91
71173;DHT22;58875;51.996;4.504;2024-01-06T14:02:20;6.02;74.07
71173;DHT22;58875;51.996;4.504;2024-01-06T14:04:46;5.94;74.53
71173;DHT22;58875;51.996;4.504;2024-01-06T14:07:11;5.88;75.03
71173;DHT22;58875;51.996;4.504;2024-01-06T14:09:37;5.97;75.49
71173;DHT22;58875;51.996;4.504;2024-01-06T14:12:03;5.94;75.32
71173;DHT22;58875;51.996;4.504;2024-01-06T14:14:33;5.95;75.69
71173;DHT22;58875;51.996;4.504;2024-01-06T14:16:59;5.95;75.82
71173;DHT22;58875;51.996;4.504;2024-01-06T14:19:25;5.93;75.98
71173;DHT22;58875;51.996;4.504;2024-01-06T14:21:50;6.00;76.33
71173;DHT22;58875;51.996;4.504;2024-01-06T14:24:16;5.98;76.13
71173;DHT22;58875;51.996;4.504;2024-01-06T14:26:49;6.07;76.52
71173;DHT22;58875;51.996;4.504;2024-01-06T14:29:15;6.08;76.56
71173;DHT22;58875;51.996;4.504;2024-01-06T14:31:42;6.07;76.50
71173;DHT22;58875;51.996;4.504;2024-01-06T14:34:08;6.02;76.36
71173;DHT22;58875;51.996;4.504;2024-01-06T14:36:33;6.00;76.28
71173;DHT22;58875;51.996;4.504;2024-01-06T14:38:59;5.94;76.58
71173;DHT22;58875;51.996;4.504;2024-01-06T14:41:26;5.97;76.82
71173;DHT22;58875;51.996;4.504;2024-01-06T14:43:52;6.05;76.70
71173;DHT22;58875;51.996;4.504;2024-01-06T14:46:18;6.01;76.72
71173;DHT22;58875;51.996;4.504;2024-01-06T14:48:44;6.08;76.75
71173;DHT22;58875;51.996;4.504;2024-01-06T14:51:10;6.02;76.67
71173;DHT22;58875;51.996;4.504;2024-01-06T14:53:35;5.98;76.56
71173;DHT22;58875;51.996;4.504;2024-01-06T14:56:01;5.93;76.73
71173;DHT22;58875;51.996;4.504;2024-01-06T14:58:29;5.86;76.64
71173;DHT22;58875;51.996;4.504;2024-01-06T15:00:55;5.77;77.00
71173;DHT22;58875;51.996;4.504;2024-01-06T15:03:20;5.84;77.04
71173;DHT22;58875;51.996;4.504;2024-01-06T15:05:47;5.91;77.32
71173;DHT22;58875;51.996;4.504;2024-01-06T15:08:12;5.98;76.73
71173;DHT22;58875;51.996;4.504;2024-01-06T15:10:38;5.95;76.76
71173;DHT22;58875;51.996;4.504;2024-01-06T15:13:04;5.88;76.61
71173;DHT22;58875;51.996;4.504;2024-01-06T15:15:29;5.83;76.74
71173;DHT22;58875;51.996;4.504;2024-01-06T15:17:55;5.73;76.90
71173;DHT22;58875;51.996;4.504;2024-01-06T15:20:21;5.73;77.07
71173;DHT22;58875;51.996;4.504;2024-01-06T15:22:48;5.75;77.14
71173;DHT22;58875;51.996;4.504;2024-01-06T15:25:14;5.67;77.02
71173;DHT22;58875;51.996;4.504;2024-01-06T15:27:40;5.69;77.19
71173;DHT22;58875;51.996;4.504;2024-01-06T15:30:06;5.67;76.29
71173;DHT22;58875;51.996;4.504;2024-01-06T15:32:37;5.61;76.40
71173;DHT22;58875;51.996;4.504;2024-01-06T15:35:04;5.57;76.32
71173;DHT22;58875;51.996;4.504;2024-01-06T15:37:30;5.53;76.74
71173;DHT22;58875;51.996;4.504;2024-01-06T15:39:57;5.51;77.11
71173;DHT22;58875;51.996;4.504;2024-01-06T15:42:22;5.51;77.17
71173;DHT22;58875;51.996;4.504;2024-01-06T15:44:48;5.51;77.28
71173;DHT22;58875;51.996;4.504;2024-01-06T15:47:13;5.50;77.37